Time;durP1;ratioP1;P1;durP2;ratioP2;P2;SDS_P1;SDS_P2;PMS_P1;PMS_P2;Temp;Humidity;BMP_temperature;BMP_pressure;BME280_temperature;BME280_humidity;BME280_pressure;Samples;Min_cycle;Max_cycle;Signal;HPM_P1;HPM_P2
2023/04/23 00:01:26;;;;;;;11.37;10.20;;;;;;;15.68;46.78;100160.09;5030294;28;20441;-73
2023/04/23 00:03:58;;;;;;;13.73;11.57;;;;;;;15.83;47.36;100157.53;5018459;28;20505;-73
2023/04/23 00:06:29;;;;;;;14.63;10.50;;;;;;;15.91;46.86;100159.84;5024141;28;20431;-73
2023/04/23 00:09:00;;;;;;;14.50;12.20;;;;;;;15.82;46.97;100160.53;5017740;28;20492;-72
2023/04/23 00:11:29;;;;;;;13.50;11.00;;;;;;;15.82;47.27;100166.84;5030161;28;20508;-71
2023/04/23 00:14:00;;;;;;;12.80;10.00;;;;;;;15.74;46.82;100155.50;5026886;28;20808;-73
2023/04/23 00:16:30;;;;;;;13.70;12.30;;;;;;;15.95;48.28;100152.78;5032387;28;20456;-73
2023/04/23 00:18:59;;;;;;;11.03;9.90;;;;;;;15.69;47.53;100153.53;5032331;28;20400;-73
2023/04/23 00:21:28;;;;;;;12.67;11.17;;;;;;;15.62;47.45;100144.75;5031842;28;20417;-73
2023/04/23 00:23:57;;;;;;;13.00;11.73;;;;;;;15.69;47.59;100148.09;5031764;28;20490;-72
2023/04/23 00:26:26;;;;;;;14.63;13.23;;;;;;;15.73;48.72;100148.44;5034050;28;20405;-72
2023/04/23 00:28:55;;;;;;;13.47;11.27;;;;;;;15.84;49.27;100147.47;5041828;28;20434;-72
2023/04/23 00:31:26;;;;;;;16.83;11.00;;;;;;;16.09;47.60;100145.84;5042291;28;20463;-72
2023/04/23 00:33:55;;;;;;;17.67;12.60;;;;;;;15.90;47.77;100141.00;5034518;28;20436;-73
2023/04/23 00:36:24;;;;;;;16.13;11.53;;;;;;;15.90;47.23;100141.81;5012507;28;20457;-71
2023/04/23 00:38:54;;;;;;;13.87;11.63;;;;;;;16.26;48.92;100144.94;5031746;28;20439;-71
2023/04/23 00:41:23;;;;;;;13.70;12.27;;;;;;;16.01;48.11;100138.13;5031158;28;20420;-71
2023/04/23 00:43:56;;;;;;;12.93;11.80;;;;;;;16.17;47.36;100130.13;5021165;28;20442;-71
2023/04/23 00:46:27;;;;;;;12.40;10.93;;;;;;;16.27;47.89;100133.75;5026625;28;20902;-72
2023/04/23 00:48:56;;;;;;;13.53;11.07;;;;;;;16.18;47.92;100127.09;5025210;28;20412;-72
2023/04/23 00:51:27;;;;;;;14.13;12.70;;;;;;;16.15;46.96;100126.81;5031641;28;20458;-71
2023/04/23 00:53:56;;;;;;;11.77;10.57;;;;;;;16.17;47.92;100121.94;5027467;28;20970;-72
2023/04/23 00:56:26;;;;;;;11.93;10.60;;;;;;;16.06;48.03;100135.47;5029158;28;20462;-71
2023/04/23 00:58:56;;;;;;;15.80;11.93;;;;;;;16.19;47.48;100119.75;5031670;28;20452;-72
2023/04/23 01:01:27;;;;;;;13.10;10.93;;;;;;;16.02;47.77;100117.94;5032667;28;20770;-71
2023/04/23 01:03:56;;;;;;;12.50;10.83;;;;;;;15.84;48.09;100123.72;5028485;28;20450;-72
2023/04/23 01:06:27;;;;;;;13.00;11.23;;;;;;;15.90;48.25;100122.72;5035060;28;20919;-71
2023/04/23 01:08:56;;;;;;;12.10;10.47;;;;;;;15.75;48.56;100121.72;5035218;28;20469;-71
2023/04/23 01:11:26;;;;;;;12.80;11.53;;;;;;;15.98;48.26;100121.44;5035545;28;20462;-72
2023/04/23 01:13:56;;;;;;;11.17;10.07;;;;;;;15.78;48.42;100124.75;5034987;28;20439;-72
2023/04/23 01:16:26;;;;;;;12.83;10.60;;;;;;;15.76;48.87;100120.63;5025761;28;20420;-71
2023/04/23 01:18:57;;;;;;;16.03;11.17;;;;;;;15.74;48.87;100120.06;5021859;28;20474;-72
2023/04/23 01:21:26;;;;;;;13.80;12.13;;;;;;;15.53;49.67;100121.72;5034974;28;20417;-71
2023/04/23 01:23:56;;;;;;;13.50;11.47;;;;;;;15.61;50.26;100124.00;5032439;28;20424;-71
2023/04/23 01:26:26;;;;;;;13.60;10.80;;;;;;;15.86;49.76;100129.78;5032363;28;20544;-71
2023/04/23 01:28:55;;;;;;;14.37;11.93;;;;;;;15.52;49.48;100117.34;5035391;28;20422;-71
2023/04/23 01:31:25;;;;;;;13.33;11.50;;;;;;;15.66;50.86;100113.16;5035032;28;20438;-71
2023/04/23 01:33:55;;;;;;;12.20;11.00;;;;;;;15.76;49.65;100116.00;5034286;28;20524;-71
2023/04/23 01:36:24;;;;;;;12.83;11.20;;;;;;;15.85;50.24;100113.66;5017598;28;20445;-71
2023/04/23 01:38:55;;;;;;;13.10;11.80;;;;;;;15.97;50.36;100123.34;5033728;28;20835;-71
2023/04/23 01:41:25;;;;;;;13.83;12.40;;;;;;;15.86;50.26;100129.78;5034249;28;20455;-70
2023/04/23 01:43:55;;;;;;;13.03;11.83;;;;;;;15.99;50.12;100113.00;5032769;28;20537;-72
2023/04/23 01:46:24;;;;;;;13.13;11.90;;;;;;;15.82;50.53;100119.63;5035277;28;20482;-71
2023/04/23 01:48:53;;;;;;;12.40;11.27;;;;;;;15.66;51.87;100132.25;5034928;28;20831;-73
2023/04/23 01:51:24;;;;;;;13.57;12.03;;;;;;;15.67;53.09;100119.44;5034959;28;20412;-71
2023/04/23 01:53:55;;;;;;;13.70;12.10;;;;;;;15.53;53.99;100124.44;5027285;28;20464;-73
2023/04/23 01:56:27;;;;;;;11.90;10.27;;;;;;;15.55;54.73;100128.56;5034851;28;20568;-71
2023/04/23 01:58:56;;;;;;;11.87;10.67;;;;;;;15.76;55.27;100121.47;5049019;28;20434;-72
2023/04/23 02:01:25;;;;;;;12.37;11.07;;;;;;;15.67;57.23;100116.72;5031493;28;20445;-72
2023/04/23 02:03:55;;;;;;;11.13;10.03;;;;;;;15.39;58.80;100117.69;5014261;28;20479;-71
2023/04/23 02:06:25;;;;;;;12.20;11.00;;;;;;;15.47;59.50;100111.78;5036527;28;20758;-72
2023/04/23 02:08:56;;;;;;;12.50;11.40;;;;;;;15.38;59.89;100110.59;5031932;28;20434;-73
2023/04/23 02:11:25;;;;;;;14.07;10.70;;;;;;;15.71;59.17;100105.03;5037802;28;20459;-72
2023/04/23 02:13:54;;;;;;;12.70;11.43;;;;;;;15.51;65.60;100107.50;5028825;28;20471;-73
2023/04/23 02:16:23;;;;;;;12.77;11.47;;;;;;;15.27;66.72;100109.63;5026025;28;20409;-72
2023/04/23 02:18:53;;;;;;;15.60;12.07;;;;;;;15.93;64.58;100108.56;5040640;28;20455;-74
2023/04/23 02:21:23;;;;;;;13.90;10.13;;;;;;;15.61;69.15;100110.38;5022946;28;20435;-73
2023/04/23 02:23:52;;;;;;;12.50;11.20;;;;;;;15.18;70.63;100111.97;5041516;28;20779;-73
2023/04/23 02:26:24;;;;;;;18.23;12.47;;;;;;;15.39;71.22;100113.06;5032615;28;20431;-73
2023/04/23 02:28:53;;;;;;;11.60;10.40;;;;;;;15.37;70.84;100108.94;5043298;28;20457;-72
2023/04/23 02:31:22;;;;;;;13.50;12.20;;;;;;;15.45;70.76;100101.13;5042622;28;20435;-73
2023/04/23 02:33:51;;;;;;;12.67;11.47;;;;;;;15.36;72.90;100101.81;5037968;28;20450;-72
2023/04/23 02:36:22;;;;;;;14.43;11.40;;;;;;;15.64;70.62;100098.94;5034618;28;20404;-72
2023/04/23 02:38:51;;;;;;;13.57;12.17;;;;;;;15.71;70.65;100104.22;5030702;28;20430;-73
2023/04/23 02:41:21;;;;;;;13.27;11.70;;;;;;;15.55;71.03;100100.47;5025388;28;20815;-73
2023/04/23 02:43:51;;;;;;;13.60;12.20;;;;;;;15.35;74.04;100100.16;5024014;28;20453;-73
2023/04/23 02:46:20;;;;;;;12.50;11.17;;;;;;;15.72;70.55;100106.69;5033358;28;20825;-72
2023/04/23 02:48:49;;;;;;;13.33;11.90;;;;;;;16.00;69.51;100097.44;5040969;28;20420;-71
2023/04/23 02:51:19;;;;;;;15.53;11.00;;;;;;;15.61;72.45;100094.81;5036205;28;20428;-72
2023/04/23 02:53:48;;;;;;;15.43;12.10;;;;;;;15.51;73.05;100102.88;5033864;28;20504;-73
2023/04/23 02:56:17;;;;;;;17.23;13.43;;;;;;;15.35;73.91;100097.44;5036395;28;20415;-72
2023/04/23 02:58:48;;;;;;;15.40;11.50;;;;;;;15.50;73.96;100103.09;5039643;28;20440;-72
2023/04/23 03:01:17;;;;;;;14.20;12.53;;;;;;;15.43;75.33;100097.84;5039690;28;20404;-73
2023/04/23 03:03:46;;;;;;;17.10;12.73;;;;;;;15.52;74.85;100087.34;5040857;28;20527;-72
2023/04/23 03:06:16;;;;;;;13.13;11.73;;;;;;;15.70;73.71;100092.47;5043444;28;20499;-73
2023/04/23 03:08:45;;;;;;;12.40;11.13;;;;;;;15.39;76.19;100095.88;5041579;28;20423;-73
2023/04/23 03:11:15;;;;;;;13.93;12.47;;;;;;;15.61;73.29;100094.00;5018889;28;20441;-73
2023/04/23 03:13:45;;;;;;;11.47;10.47;;;;;;;15.49;76.71;100091.38;5018652;28;20471;-72
2023/04/23 03:16:15;;;;;;;12.67;11.03;;;;;;;15.79;73.16;100096.41;5041695;28;20469;-71
2023/04/23 03:18:44;;;;;;;11.87;10.73;;;;;;;15.91;72.56;100080.72;5045093;28;20429;-72
2023/04/23 03:21:13;;;;;;;14.00;9.73;;;;;;;16.13;72.10;100086.13;5031918;28;20548;-72
2023/04/23 03:23:43;;;;;;;18.20;14.77;;;;;;;15.99;73.44;100085.72;5020432;28;20462;-72
2023/04/23 03:26:12;;;;;;;11.77;10.60;;;;;;;16.13;72.51;100085.28;5039525;28;20417;-74
2023/04/23 03:28:42;;;;;;;12.80;10.13;;;;;;;16.07;73.13;100084.44;5022751;28;20791;-73
2023/04/23 03:31:12;;;;;;;12.23;11.13;;;;;;;16.09;72.51;100079.53;5015787;28;20424;-73
2023/04/23 03:33:41;;;;;;;11.43;10.20;;;;;;;16.16;72.37;100076.59;5033730;28;20896;-72
2023/04/23 03:36:11;;;;;;;10.83;9.90;;;;;;;16.34;72.76;100073.50;5029738;28;20424;-72
2023/04/23 03:38:40;;;;;;;10.70;9.67;;;;;;;16.06;73.82;100072.69;5024006;28;20406;-72
2023/04/23 03:41:09;;;;;;;11.03;9.67;;;;;;;16.09;72.36;100074.06;5024346;28;20988;-72
2023/04/23 03:43:39;;;;;;;11.03;9.90;;;;;;;16.22;72.31;100075.53;5028283;28;20475;-72
2023/04/23 03:46:21;;;;;;;11.40;10.20;;;;;;;16.26;71.88;100076.69;5015872;28;20421;-72
2023/04/23 03:48:50;;;;;;;14.30;11.23;;;;;;;15.67;76.06;100064.88;5041543;28;20942;-73
2023/04/23 03:51:26;;;;;;;12.10;10.00;;;;;;;15.51;75.55;100069.34;5014257;28;20455;-72
2023/04/23 03:53:56;;;;;;;12.80;11.50;;;;;;;15.42;77.48;100079.00;5033093;28;20968;-73
2023/04/23 03:56:41;;;;;;;11.43;9.60;;;;;;;15.29;77.17;100068.50;5012662;28;20420;-72
2023/04/23 03:59:14;;;;;;;11.53;10.07;;;;;;;15.40;76.91;100070.25;5034519;28;20811;-73
2023/04/23 04:01:47;;;;;;;11.00;10.03;;;;;;;15.58;75.99;100072.72;5016163;28;20461;-71
2023/04/23 04:04:16;;;;;;;11.40;9.87;;;;;;;15.85;74.33;100072.72;5014659;28;20450;-72
2023/04/23 04:06:46;;;;;;;12.70;9.83;;;;;;;15.93;74.23;100072.25;5025993;28;20456;-71
2023/04/23 04:09:15;;;;;;;15.87;9.27;;;;;;;15.64;75.60;100071.66;5035553;28;20407;-72
2023/04/23 04:11:45;;;;;;;10.50;9.50;;;;;;;15.64;76.57;100068.94;5028007;28;20480;-72
2023/04/23 04:14:14;;;;;;;11.07;9.70;;;;;;;15.64;76.16;100061.59;5033614;28;20464;-72
2023/04/23 04:16:43;;;;;;;9.57;8.57;;;;;;;15.69;76.91;100062.72;5033561;28;20454;-72
2023/04/23 04:19:16;;;;;;;11.87;10.80;;;;;;;15.55;77.36;100056.84;5032537;28;20445;-71
2023/04/23 04:21:45;;;;;;;12.50;9.77;;;;;;;15.59;77.50;100068.88;5030079;28;20849;-72
2023/04/23 04:24:14;;;;;;;10.67;9.67;;;;;;;16.17;74.41;100065.41;5035651;28;20446;-72
2023/04/23 04:26:44;;;;;;;11.00;9.90;;;;;;;15.99;76.49;100063.88;5034367;28;20804;-72
2023/04/23 04:29:13;;;;;;;11.30;8.93;;;;;;;16.02;77.03;100070.75;5035122;28;20404;-73
2023/04/23 04:31:43;;;;;;;10.80;9.77;;;;;;;15.91;77.89;100071.72;5030612;28;20417;-73
2023/04/23 04:34:14;;;;;;;10.43;8.40;;;;;;;16.21;74.70;100071.19;5029248;28;20835;-72
2023/04/23 04:36:43;;;;;;;10.63;9.53;;;;;;;16.01;76.43;100067.19;5036926;28;20857;-73
2023/04/23 04:39:13;;;;;;;11.20;10.07;;;;;;;16.09;77.25;100071.34;5037898;28;20416;-71
2023/04/23 04:41:43;;;;;;;9.97;8.77;;;;;;;16.25;75.54;100067.69;5040299;28;20447;-72
2023/04/23 04:44:13;;;;;;;12.90;10.00;;;;;;;16.71;72.83;100059.88;5036132;28;20446;-72
2023/04/23 04:46:42;;;;;;;13.33;8.90;;;;;;;16.56;73.50;100065.19;5039143;28;20458;-71
2023/04/23 04:49:13;;;;;;;9.93;8.93;;;;;;;16.52;75.53;100067.63;5044118;28;20863;-72
2023/04/23 04:51:42;;;;;;;10.60;9.60;;;;;;;16.46;75.17;100074.94;5037597;28;20459;-72
2023/04/23 04:54:11;;;;;;;9.80;8.90;;;;;;;16.38;75.33;100077.34;5044048;28;20478;-73
2023/04/23 04:56:40;;;;;;;9.33;7.93;;;;;;;16.07;76.54;100081.72;5021232;28;20533;-73
2023/04/23 04:59:09;;;;;;;11.00;8.63;;;;;;;16.18;76.29;100088.06;5037087;28;20404;-73
2023/04/23 05:01:39;;;;;;;8.77;7.97;;;;;;;16.33;75.85;100089.03;5033167;28;20453;-73
2023/04/23 05:04:09;;;;;;;13.97;9.00;;;;;;;16.22;77.79;100086.47;5042710;28;20428;-72
2023/04/23 05:06:40;;;;;;;8.87;7.97;;;;;;;15.91;78.59;100078.00;5042363;28;20817;-72
2023/04/23 05:09:10;;;;;;;11.43;8.13;;;;;;;15.66;80.57;100094.06;5038315;28;20408;-72
2023/04/23 05:11:40;;;;;;;9.13;7.80;;;;;;;15.71;80.68;100091.41;5021711;28;20435;-72
2023/04/23 05:14:09;;;;;;;8.33;7.47;;;;;;;16.25;77.46;100085.97;5030595;28;20481;-71
2023/04/23 05:16:38;;;;;;;11.10;9.03;;;;;;;15.80;80.67;100081.69;5033746;28;20404;-71
2023/04/23 05:19:08;;;;;;;9.83;8.93;;;;;;;15.87;80.49;100082.31;5028289;28;20958;-72
2023/04/23 05:21:39;;;;;;;10.70;9.03;;;;;;;16.02;79.90;100078.94;5035471;28;20423;-73
2023/04/23 05:24:08;;;;;;;9.03;7.93;;;;;;;16.43;76.80;100091.88;5031672;28;20442;-73
2023/04/23 05:26:38;;;;;;;9.80;7.47;;;;;;;16.74;75.32;100084.78;5037236;28;20413;-72
2023/04/23 05:29:07;;;;;;;9.30;8.40;;;;;;;16.76;76.35;100082.59;5030806;28;20831;-73
2023/04/23 05:31:36;;;;;;;9.97;8.97;;;;;;;16.74;76.77;100092.97;5033163;28;20880;-72
2023/04/23 05:34:05;;;;;;;10.70;8.57;;;;;;;17.17;75.82;100082.88;5032152;28;20499;-73
2023/04/23 05:36:35;;;;;;;12.43;8.30;;;;;;;17.29;74.59;100084.28;5034280;28;20413;-72
2023/04/23 05:39:05;;;;;;;7.93;7.13;;;;;;;17.78;70.26;100086.72;5034568;28;20417;-71
2023/04/23 05:41:35;;;;;;;11.50;7.30;;;;;;;17.84;70.56;100098.50;5034370;28;20495;-73
2023/04/23 05:44:04;;;;;;;8.90;7.10;;;;;;;17.43;73.41;100090.09;5036805;28;20477;-72
2023/04/23 05:46:34;;;;;;;8.70;7.90;;;;;;;17.04;74.80;100095.06;5031821;28;20427;-72
2023/04/23 05:49:03;;;;;;;8.43;7.63;;;;;;;16.74;75.99;100103.91;5023929;28;20406;-74
2023/04/23 05:51:32;;;;;;;9.60;8.60;;;;;;;16.74;76.09;100103.06;5035097;28;20436;-72
2023/04/23 05:54:02;;;;;;;8.30;6.90;;;;;;;16.71;76.98;100098.94;5034100;28;20469;-72
2023/04/23 05:56:32;;;;;;;8.37;7.57;;;;;;;16.21;79.55;100106.69;5031721;28;20430;-73
2023/04/23 05:59:02;;;;;;;7.70;6.90;;;;;;;15.94;81.68;100098.47;5033673;28;20404;-73
2023/04/23 06:01:33;;;;;;;8.37;6.90;;;;;;;15.90;82.34;100102.78;5033440;28;20430;-72
2023/04/23 06:04:02;;;;;;;8.97;8.07;;;;;;;16.00;82.05;100106.47;5035101;28;20425;-73
2023/04/23 06:06:31;;;;;;;9.53;7.27;;;;;;;16.14;81.64;100097.84;5027241;28;20421;-72
2023/04/23 06:09:01;;;;;;;7.97;7.17;;;;;;;16.10;81.85;100105.75;5034249;28;20417;-72
2023/04/23 06:11:32;;;;;;;13.03;8.37;;;;;;;16.09;81.88;100098.63;5039745;28;20423;-71
2023/04/23 06:14:01;;;;;;;8.23;7.30;;;;;;;16.23;81.72;100101.75;5033158;28;20479;-72
2023/04/23 06:16:30;;;;;;;8.63;6.63;;;;;;;16.09;82.60;100107.66;5032692;28;20434;-72
2023/04/23 06:18:59;;;;;;;8.67;7.87;;;;;;;16.13;82.48;100104.38;5040962;28;20473;-72
2023/04/23 06:21:28;;;;;;;8.10;6.57;;;;;;;16.32;81.99;100111.13;5037804;28;20608;-72
2023/04/23 06:23:57;;;;;;;10.43;7.87;;;;;;;16.57;80.31;100105.91;5035133;28;20998;-73
2023/04/23 06:26:26;;;;;;;8.10;7.30;;;;;;;16.57;80.02;100108.63;5036283;28;20413;-73
2023/04/23 06:29:01;;;;;;;7.50;6.80;;;;;;;16.86;78.47;100104.53;5031632;28;20451;-73
2023/04/23 06:31:34;;;;;;;8.80;7.80;;;;;;;16.79;78.92;100103.94;5011602;28;20446;-72
2023/04/23 06:34:04;;;;;;;7.63;6.80;;;;;;;16.58;79.66;100110.31;5029587;28;20520;-73
2023/04/23 06:36:33;;;;;;;9.53;7.80;;;;;;;16.66;80.14;100107.09;5033856;28;20795;-73
2023/04/23 06:39:03;;;;;;;8.47;7.50;;;;;;;16.73;79.66;100107.72;5034081;28;20992;-73
2023/04/23 06:41:33;;;;;;;8.37;7.47;;;;;;;16.84;79.37;100114.91;5033927;28;20460;-72
2023/04/23 06:44:14;;;;;;;8.27;6.80;;;;;;;17.01;78.85;100114.75;5011477;28;21044;-72
2023/04/23 06:46:52;;;;;;;7.60;6.90;;;;;;;17.25;77.41;100115.16;5031982;28;20430;-72
2023/04/23 06:49:21;;;;;;;8.03;6.83;;;;;;;17.09;78.13;100111.50;5032832;28;20992;-72
2023/04/23 06:51:50;;;;;;;8.13;7.33;;;;;;;16.93;79.18;100116.06;5035164;28;21095;-71
2023/04/23 06:54:19;;;;;;;7.40;6.07;;;;;;;16.90;79.51;100113.84;5033916;28;20812;-72
2023/04/23 06:56:49;;;;;;;7.87;6.30;;;;;;;16.68;80.52;100121.34;5041323;28;20503;-71
2023/04/23 06:59:20;;;;;;;7.57;6.87;;;;;;;16.42;81.45;100117.50;5034505;28;20447;-72
2023/04/23 07:01:53;;;;;;;7.13;6.30;;;;;;;16.02;84.03;100114.41;5015309;28;20500;-71
2023/04/23 07:04:22;;;;;;;7.33;6.67;;;;;;;15.94;86.32;100121.13;5038213;28;20504;-72
2023/04/23 07:06:51;;;;;;;7.40;6.70;;;;;;;15.94;86.50;100126.59;5037008;28;20784;-71
2023/04/23 07:09:21;;;;;;;12.43;7.53;;;;;;;15.70;88.06;100119.75;5035080;28;20469;-72
2023/04/23 07:11:58;;;;;;;8.03;6.80;;;;;;;15.58;90.10;100117.16;5034590;28;20487;-70
2023/04/23 07:14:28;;;;;;;10.40;6.40;;;;;;;15.54;90.60;100126.91;5037501;28;20443;-72
2023/04/23 07:16:58;;;;;;;7.80;6.50;;;;;;;15.53;90.80;100132.63;5027603;28;20434;-72
2023/04/23 07:19:27;;;;;;;7.20;5.87;;;;;;;15.69;90.30;100137.19;5034778;28;20437;-73
2023/04/23 07:21:56;;;;;;;8.53;6.40;;;;;;;15.81;89.64;100132.44;5032080;28;20408;-73
2023/04/23 07:24:26;;;;;;;8.93;6.50;;;;;;;15.60;91.39;100139.53;5034692;28;20428;-72
2023/04/23 07:30:40;;;;;;;6.93;6.03;;;;;;;15.12;95.63;100129.31;5030535;28;20424;-71
2023/04/23 07:33:28;;;;;;;8.47;6.60;;;;;;;15.52;92.88;100130.97;5030194;28;20448;-73
2023/04/23 07:35:57;;;;;;;10.33;5.90;;;;;;;15.87;90.83;100136.88;5039028;28;20491;-72
2023/04/23 07:38:26;;;;;;;5.80;5.20;;;;;;;16.22;88.01;100135.59;5035140;28;20438;-72
2023/04/23 07:40:55;;;;;;;8.37;6.63;;;;;;;16.39;87.23;100139.06;5032098;28;20403;-72
2023/04/23 07:43:24;;;;;;;6.53;5.30;;;;;;;16.32;88.03;100139.25;5034986;28;21001;-71
2023/04/23 07:45:55;;;;;;;7.23;6.50;;;;;;;16.59;86.02;100144.75;5033831;28;20802;-72
2023/04/23 07:48:24;;;;;;;7.83;7.03;;;;;;;16.39;87.00;100144.53;5031517;28;20404;-73
2023/04/23 07:50:53;;;;;;;7.23;6.37;;;;;;;16.30;88.20;100146.06;5030734;28;20523;-70
2023/04/23 07:53:22;;;;;;;8.43;6.70;;;;;;;16.31;88.45;100147.72;5014877;28;20450;-72
2023/04/23 07:55:52;;;;;;;9.67;7.60;;;;;;;16.41;88.19;100154.09;5016506;28;20558;-71
2023/04/23 07:58:21;;;;;;;7.60;6.63;;;;;;;16.61;87.24;100142.56;5032354;28;20417;-71
2023/04/23 08:00:50;;;;;;;7.10;6.40;;;;;;;16.43;88.95;100149.22;5032441;28;20413;-72
2023/04/23 08:03:22;;;;;;;7.93;7.23;;;;;;;16.07;89.88;100147.22;5032066;28;20531;-72
2023/04/23 08:05:51;;;;;;;7.10;6.43;;;;;;;16.35;88.11;100146.13;5032169;28;20455;-71
2023/04/23 08:08:22;;;;;;;8.47;7.47;;;;;;;16.39;88.81;100147.25;5009512;28;20446;-72
2023/04/23 08:10:51;;;;;;;10.43;6.40;;;;;;;16.02;90.52;100152.59;5030347;28;20478;-71
2023/04/23 08:13:20;;;;;;;8.03;6.77;;;;;;;16.49;87.35;100155.53;5032187;28;20446;-72
2023/04/23 08:15:50;;;;;;;8.63;6.40;;;;;;;16.51;88.13;100154.19;5028588;28;20527;-72
2023/04/23 08:18:21;;;;;;;7.30;6.60;;;;;;;16.42;88.53;100153.00;5041354;28;20415;-71
2023/04/23 08:20:50;;;;;;;7.00;6.30;;;;;;;16.71;87.43;100148.13;5029374;28;20493;-72
2023/04/23 08:23:20;;;;;;;10.37;8.03;;;;;;;16.58;88.04;100148.56;5026706;28;20454;-73
2023/04/23 08:25:49;;;;;;;8.43;7.67;;;;;;;16.31;89.70;100147.72;5031911;28;20461;-69
2023/04/23 08:28:19;;;;;;;12.00;9.23;;;;;;;16.84;85.92;100142.25;5032227;28;20870;-71
2023/04/23 08:30:48;;;;;;;8.13;7.40;;;;;;;16.87;86.66;100140.88;5030027;28;20454;-71
2023/04/23 08:33:17;;;;;;;11.20;10.17;;;;;;;16.89;86.72;100139.50;5031006;28;20425;-72
2023/04/23 08:35:47;;;;;;;13.70;9.67;;;;;;;17.03;87.04;100144.56;5030857;28;20520;-73
2023/04/23 08:38:17;;;;;;;8.70;7.80;;;;;;;16.94;84.78;100145.03;5032091;28;20774;-71
2023/04/23 08:40:49;;;;;;;9.07;8.27;;;;;;;16.85;86.35;100156.69;5029774;28;20495;-71
2023/04/23 08:43:20;;;;;;;10.30;7.23;;;;;;;16.87;85.94;100151.81;5038949;28;20525;-70
2023/04/23 08:45:50;;;;;;;10.40;7.97;;;;;;;17.02;84.76;100153.84;5027428;28;20418;-70
2023/04/23 08:48:19;;;;;;;8.93;7.57;;;;;;;17.13;85.34;100156.38;5024826;28;20493;-71
2023/04/23 08:50:50;;;;;;;10.43;9.33;;;;;;;17.23;84.45;100152.91;5026941;28;20406;-70
2023/04/23 08:53:21;;;;;;;9.67;8.47;;;;;;;17.25;83.14;100153.44;5026428;28;20451;-71
2023/04/23 08:55:51;;;;;;;9.97;8.97;;;;;;;17.20;83.79;100147.94;5030634;28;20433;-72
2023/04/23 08:58:21;;;;;;;11.53;7.83;;;;;;;17.19;83.41;100147.09;5024491;28;20409;-70
2023/04/23 09:00:50;;;;;;;9.73;8.67;;;;;;;17.01;84.73;100144.81;5025453;28;20435;-71
2023/04/23 09:03:20;;;;;;;10.43;9.43;;;;;;;16.71;86.41;100155.50;5027308;28;20451;-71
2023/04/23 09:05:52;;;;;;;11.87;10.70;;;;;;;16.48;87.84;100162.91;5031110;28;20521;-72
2023/04/23 09:08:21;;;;;;;10.03;9.03;;;;;;;16.06;90.97;100162.75;5027751;28;20816;-71
2023/04/23 09:10:52;;;;;;;10.80;9.70;;;;;;;16.16;90.92;100172.13;5029358;28;20427;-70
2023/04/23 09:13:21;;;;;;;10.77;8.73;;;;;;;16.24;91.23;100168.94;5031358;28;20523;-71
2023/04/23 09:15:51;;;;;;;11.60;9.90;;;;;;;15.95;92.27;100160.97;5032879;28;20437;-72
2023/04/23 09:18:21;;;;;;;10.90;9.80;;;;;;;15.83;92.86;100173.91;5033132;28;20923;-72
2023/04/23 09:20:52;;;;;;;12.37;9.27;;;;;;;15.95;92.57;100166.44;5032374;28;20400;-73
2023/04/23 09:23:23;;;;;;;10.10;9.00;;;;;;;15.63;93.99;100168.22;5030997;28;20431;-72
2023/04/23 09:25:52;;;;;;;11.73;8.93;;;;;;;15.54;95.05;100181.44;5035382;28;20464;-74
2023/04/23 09:29:12;;;;;;;8.80;7.80;;;;;;;15.32;96.57;100171.56;5030992;28;20400;-73
2023/04/23 09:31:42;;;;;;;12.47;9.90;;;;;;;15.20;97.46;100175.19;5038157;28;20407;-72
2023/04/23 09:34:11;;;;;;;10.90;9.77;;;;;;;14.84;99.75;100181.19;5038111;28;20457;-72
2023/04/23 09:36:42;;;;;;;11.53;10.07;;;;;;;14.57;100.00;100191.88;5037136;28;20954;-72
2023/04/23 09:39:14;;;;;;;8.23;6.97;;;;;;;14.30;100.00;100185.34;5028148;28;20403;-72
2023/04/23 09:41:45;;;;;;;7.97;6.07;;;;;;;14.35;99.34;100186.28;5035440;28;20423;-72
2023/04/23 09:44:18;;;;;;;5.07;4.30;;;;;;;14.05;100.00;100193.84;5034435;28;20859;-72
2023/04/23 09:46:48;;;;;;;8.17;5.30;;;;;;;14.18;100.00;100192.75;5031028;28;20411;-72
2023/04/23 09:49:17;;;;;;;4.93;4.43;;;;;;;14.33;100.00;100195.75;5035183;28;20411;-72
2023/04/23 09:51:49;;;;;;;7.33;5.47;;;;;;;14.51;97.45;100198.31;5032692;28;20434;-71
2023/04/23 09:54:21;;;;;;;5.00;4.60;;;;;;;14.18;98.54;100204.47;5034597;28;20467;-72
2023/04/23 09:56:52;;;;;;;6.53;4.87;;;;;;;14.20;100.00;100202.31;5032856;28;20552;-72
2023/04/23 09:59:23;;;;;;;8.53;4.90;;;;;;;14.41;97.64;100206.28;5013815;28;20444;-72
2023/04/23 10:02:09;;;;;;;5.37;4.90;;;;;;;14.44;98.44;100197.63;5017626;28;20514;-73
2023/04/23 10:04:40;;;;;;;5.50;4.90;;;;;;;14.62;97.58;100207.50;5034946;28;20801;-72
2023/04/23 10:07:13;;;;;;;5.73;4.23;;;;;;;14.79;95.91;100203.72;5033334;28;20803;-73
2023/04/23 10:09:45;;;;;;;5.47;4.80;;;;;;;14.77;96.00;100205.84;5035036;28;20874;-74
2023/04/23 10:12:15;;;;;;;5.97;5.40;;;;;;;14.79;94.55;100219.22;5035187;28;20467;-73
2023/04/23 10:15:05;;;;;;;5.73;5.20;;;;;;;14.62;95.33;100218.38;5034738;28;20539;-73
2023/04/23 10:17:36;;;;;;;5.53;4.20;;;;;;;14.74;94.17;100219.97;5034492;28;20533;-71
2023/04/23 10:20:07;;;;;;;4.73;4.23;;;;;;;15.04;92.40;100224.28;5024490;28;20593;-72
2023/04/23 10:22:41;;;;;;;5.60;4.37;;;;;;;14.83;91.12;100228.53;5034579;28;20454;-73
2023/04/23 10:25:12;;;;;;;3.90;3.50;;;;;;;15.72;89.23;100229.44;5030826;28;20433;-72
2023/04/23 10:27:43;;;;;;;4.20;3.80;;;;;;;15.71;88.25;100235.97;5034745;28;20430;-72
2023/04/23 10:30:22;;;;;;;4.10;3.20;;;;;;;15.43;85.94;100226.00;5031735;28;20412;-72
2023/04/23 10:32:51;;;;;;;3.00;2.70;;;;;;;15.91;84.91;100233.50;5034211;28;20436;-73
2023/04/23 10:35:20;;;;;;;5.67;5.17;;;;;;;15.90;83.11;100229.13;5034422;28;20791;-72
2023/04/23 10:37:51;;;;;;;4.33;3.93;;;;;;;16.38;81.69;100225.59;5033051;28;20467;-73
2023/04/23 10:40:29;;;;;;;5.67;4.40;;;;;;;16.65;79.28;100225.66;5038035;28;20799;-73
2023/04/23 10:42:59;;;;;;;6.43;5.43;;;;;;;16.93;75.99;100217.19;5033836;28;20820;-72
2023/04/23 10:45:32;;;;;;;5.23;4.73;;;;;;;17.18;75.74;100219.31;5034163;28;20417;-72
2023/04/23 10:48:01;;;;;;;8.97;6.63;;;;;;;17.56;73.21;100214.63;5035054;28;20397;-72
2023/04/23 10:50:34;;;;;;;9.43;8.03;;;;;;;17.46;71.17;100215.41;5033927;28;20793;-71
2023/04/23 10:53:05;;;;;;;9.13;8.23;;;;;;;17.62;71.21;100208.94;5035550;28;20432;-71
2023/04/23 10:55:34;;;;;;;9.30;6.70;;;;;;;17.78;69.77;100210.69;5038883;28;20431;-72
2023/04/23 10:58:04;;;;;;;8.30;7.40;;;;;;;17.71;70.12;100206.56;5039331;28;20459;-71
2023/04/23 11:00:45;;;;;;;8.57;7.30;;;;;;;18.24;69.51;100210.88;5049285;28;20505;-73
2023/04/23 11:03:38;;;;;;;9.30;8.13;;;;;;;18.62;66.49;100218.69;5034321;28;20463;-72
2023/04/23 11:06:15;;;;;;;8.67;7.27;;;;;;;18.36;67.75;100225.16;5023212;28;20529;-71
2023/04/23 11:08:55;;;;;;;9.47;7.87;;;;;;;18.17;67.04;100229.47;5033314;28;20901;-72
2023/04/23 11:11:39;;;;;;;10.90;8.70;;;;;;;17.89;69.14;100224.41;5026114;28;20497;-73
2023/04/23 11:14:14;;;;;;;9.73;8.43;;;;;;;17.94;69.58;100221.72;5032869;28;20972;-73
2023/04/23 11:16:43;;;;;;;12.27;8.90;;;;;;;17.55;69.20;100224.75;5031060;28;20509;-72
2023/04/23 11:19:14;;;;;;;11.20;9.47;;;;;;;17.98;67.73;100222.81;5038969;28;20633;-73
2023/04/23 11:22:00;;;;;;;13.00;11.10;;;;;;;17.70;67.82;100222.13;5030554;28;20901;-74
2023/04/23 11:24:32;;;;;;;10.93;9.87;;;;;;;16.84;71.15;100229.69;5027179;28;20509;-73
2023/04/23 11:27:05;;;;;;;11.40;8.90;;;;;;;16.64;71.94;100221.28;5033336;28;20886;-71
2023/04/23 11:29:34;;;;;;;10.27;8.53;;;;;;;16.93;72.95;100211.72;5046003;28;20439;-72
2023/04/23 11:32:04;;;;;;;11.93;10.03;;;;;;;17.23;71.23;100218.53;5045705;28;20441;-72
2023/04/23 11:34:34;;;;;;;11.90;10.23;;;;;;;17.86;70.81;100222.22;5043193;28;20429;-71
2023/04/23 11:37:03;;;;;;;14.63;11.40;;;;;;;18.20;69.03;100226.22;5042107;28;20469;-72